This is the latest recevied weather packets stored in our database for station/object KI5NXU. If no packets are shown the sender has not sent any weather packets the latest 1 day(s).
| Time | Temp. | Humidity | Pressure | Rain* | Wind** | Luminosity | Snow |
|---|---|---|---|---|---|---|---|
| 1778013423 | 30.56° C | 50% | 1004.4 hPa | 0 mm | 2.24 m/s, 354° | 644 W/m² | - |
| 1778013120 | 30° C | 46% | 1004.7 hPa | 0 mm | 3.13 m/s, 27° | 621 W/m² | - |
| 1778012815 | 30° C | 48% | 1004.5 hPa | 0 mm | 1.34 m/s, 274° | 655 W/m² | - |
| 1778012512 | 30° C | 47% | 1004.7 hPa | 0 mm | 2.68 m/s, 287° | 638 W/m² | - |
| 1778012208 | 30° C | 45% | 1005 hPa | 0 mm | 1.34 m/s, 6° | 635 W/m² | - |
| 1778011906 | 30° C | 46% | 1004.8 hPa | 0 mm | 2.24 m/s, 1° | 648 W/m² | - |
| 1778011604 | 30° C | 46% | 1004.8 hPa | 0 mm | 1.34 m/s, 290° | 633 W/m² | - |
| 1778011301 | 29.44° C | 45% | 1005 hPa | 0 mm | 2.24 m/s, 345° | 746 W/m² | - |
| 1778010997 | 30° C | 46% | 1004.9 hPa | 0 mm | 3.13 m/s, 287° | 765 W/m² | - |
| 1778010694 | 29.44° C | 42% | 1004.9 hPa | 0 mm | 2.24 m/s, 29° | 695 W/m² | - |
| 1778010391 | 29.44° C | 41% | 1005 hPa | 0 mm | 3.13 m/s, 339° | 701 W/m² | - |
| 1778010087 | 29.44° C | 41% | 1005 hPa | 0 mm | 4.92 m/s, 285° | 750 W/m² | - |
| 1778009784 | 28.89° C | 43% | 1005 hPa | 0 mm | 2.24 m/s, 353° | 773 W/m² | - |
| 1778009481 | 28.33° C | 42% | 1005.1 hPa | 0 mm | 2.68 m/s, 349° | 334 W/m² | - |
| 1778009180 | 28.33° C | 43% | 1005 hPa | 0 mm | 4.47 m/s, 339° | 501 W/m² | - |
| 1778008877 | 28.33° C | 41% | 1005 hPa | 0 mm | 3.13 m/s, 330° | 387 W/m² | - |
| 1778008575 | 28.89° C | 40% | 1005 hPa | 0 mm | 3.58 m/s, 32° | 401 W/m² | - |
| 1778008273 | 30.56° C | 50% | 1004.7 hPa | 0 mm | 2.24 m/s, 266° | 382 W/m² | - |
| 1778007968 | 30.56° C | 49% | 1004.5 hPa | 0 mm | 2.24 m/s, 244° | 534 W/m² | - |
| 1778007664 | 30.56° C | 48% | 1004.5 hPa | 0 mm | 1.34 m/s, 275° | 471 W/m² | - |
| 1778007360 | 30° C | 50% | 1004.7 hPa | 0 mm | 3.58 m/s, 281° | 374 W/m² | - |
| 1778007057 | 30.56° C | 57% | 1004.8 hPa | 0 mm | 1.34 m/s, 251° | 402 W/m² | - |
| 1778006754 | 30° C | 55% | 1004.4 hPa | 0 mm | 4.02 m/s, 209° | 642 W/m² | - |
| 1778006450 | 30° C | 56% | 1004.9 hPa | 0 mm | 4.02 m/s, 232° | 514 W/m² | - |
| 1778006147 | 30.56° C | 54% | 1004.8 hPa | 0 mm | 2.68 m/s, 231° | 563 W/m² | - |
* Rain latest hour (hover to see other rain measurements)
** Current wind speed in m/s (hover to see current wind gust speed)